Time;durP1;ratioP1;P1;durP2;ratioP2;P2;SDS_P1;SDS_P2;PMS_P1;PMS_P2;Temp;Humidity;BMP_temperature;BMP_pressure;BME280_temperature;BME280_humidity;BME280_pressure;Samples;Min_cycle;Max_cycle;Signal;HPM_P1;HPM_P2
2021/10/15 00:02:25;;;;;;;22.17;17.73;;;;;;;10.49;86.98;100679.91;1767375;81;20999;-80
2021/10/15 00:04:51;;;;;;;18.35;15.63;;;;;;;10.49;86.99;100678.58;1766311;81;21491;-80
2021/10/15 00:07:17;;;;;;;20.02;15.45;;;;;;;10.49;86.99;100677.25;1766437;81;21018;-80
2021/10/15 00:09:43;;;;;;;20.85;16.37;;;;;;;10.48;86.95;100673.43;1766163;81;21161;-80
2021/10/15 00:12:09;;;;;;;28.05;16.97;;;;;;;10.45;86.97;100671.89;1766314;81;21042;-80
2021/10/15 00:14:35;;;;;;;21.57;16.32;;;;;;;10.46;86.94;100673.58;1766297;81;21110;-80
2021/10/15 00:17:01;;;;;;;24.45;15.65;;;;;;;10.47;86.94;100673.08;1766500;81;21073;-80
2021/10/15 00:19:27;;;;;;;24.15;15.95;;;;;;;10.45;86.95;100667.06;1767593;81;21042;-80
2021/10/15 00:21:53;;;;;;;20.80;15.93;;;;;;;10.47;86.95;100674.41;1767243;81;21064;-80
2021/10/15 00:24:19;;;;;;;22.17;15.05;;;;;;;10.46;86.95;100670.91;1767288;81;21610;-80
2021/10/15 00:26:45;;;;;;;23.75;18.30;;;;;;;10.48;86.94;100673.43;1767071;81;21632;-80
2021/10/15 00:29:11;;;;;;;25.48;20.82;;;;;;;10.46;86.92;100668.24;1767249;81;20990;-80
2021/10/15 00:31:37;;;;;;;24.18;19.73;;;;;;;10.47;86.93;100671.25;1767321;81;21039;-80
2021/10/15 00:34:03;;;;;;;25.08;18.77;;;;;;;10.46;86.92;100671.41;1767169;81;21128;-80
2021/10/15 00:36:29;;;;;;;21.23;15.80;;;;;;;10.45;86.93;100664.39;1767106;81;21018;-80
2021/10/15 00:38:55;;;;;;;22.73;16.05;;;;;;;10.45;86.94;100663.90;1767109;81;21006;-80
2021/10/15 00:41:21;;;;;;;18.30;15.23;;;;;;;10.45;86.92;100666.56;1767142;81;21045;-80
2021/10/15 00:44:05;;;;;;;19.65;16.30;;;;;;;10.46;86.93;100660.73;1750546;81;21007;-80
2021/10/15 00:46:32;;;;;;;24.05;16.80;;;;;;;10.46;86.92;100657.58;1747748;82;21351;-80
2021/10/15 00:48:58;;;;;;;20.60;16.23;;;;;;;10.46;86.91;100658.07;1746902;82;21043;-80
2021/10/15 00:51:25;;;;;;;18.07;15.20;;;;;;;10.45;86.88;100655.90;1748062;82;21059;-80
2021/10/15 00:53:51;;;;;;;19.20;14.87;;;;;;;10.45;86.92;100650.56;1748092;82;20952;-80
2021/10/15 00:56:17;;;;;;;22.60;15.40;;;;;;;10.46;86.91;100644.25;1747677;82;20999;-80
2021/10/15 00:58:43;;;;;;;18.48;15.43;;;;;;;10.46;86.88;100650.91;1747742;81;21131;-80
2021/10/15 01:01:09;;;;;;;20.20;15.15;;;;;;;10.45;86.91;100646.56;1747768;82;21051;-80
2021/10/15 01:03:35;;;;;;;21.40;16.07;;;;;;;10.45;86.87;100630.57;1747889;82;21023;-80
2021/10/15 01:06:01;;;;;;;19.15;15.32;;;;;;;10.44;86.86;100623.59;1747610;81;21039;-80
2021/10/15 01:08:27;;;;;;;20.95;15.38;;;;;;;10.44;86.85;100626.26;1747892;82;20995;-80
2021/10/15 01:10:55;;;;;;;20.17;15.88;;;;;;;10.43;86.85;100627.25;1747856;82;21155;-80
2021/10/15 01:13:21;;;;;;;21.35;16.52;;;;;;;10.43;86.86;100629.91;1747663;82;21022;-80
2021/10/15 01:15:47;;;;;;;21.00;17.05;;;;;;;10.42;86.87;100636.23;1747536;81;21496;-80
2021/10/15 01:18:13;;;;;;;19.52;14.87;;;;;;;10.41;86.85;100629.75;1747727;82;21043;-80
2021/10/15 01:20:40;;;;;;;22.07;16.48;;;;;;;10.41;86.87;100625.22;1747786;81;21062;-80
2021/10/15 01:23:06;;;;;;;21.90;15.28;;;;;;;10.40;86.85;100624.91;1747784;82;21157;-80
2021/10/15 01:25:34;;;;;;;21.57;16.25;;;;;;;10.42;86.83;100621.57;1747608;82;21019;-80
2021/10/15 01:28:01;;;;;;;20.82;15.88;;;;;;;10.40;86.83;100615.58;1747878;81;21003;-80
2021/10/15 01:30:27;;;;;;;20.05;14.63;;;;;;;10.40;86.83;100612.91;1747709;82;21051;-80
2021/10/15 01:32:53;;;;;;;18.62;14.18;;;;;;;10.40;86.83;100612.91;1747977;82;21047;-80
2021/10/15 01:35:19;;;;;;;16.20;13.43;;;;;;;10.39;86.82;100609.91;1747898;82;21457;-79
2021/10/15 01:37:45;;;;;;;17.95;13.80;;;;;;;10.39;86.82;100608.57;1747645;82;21585;-80
2021/10/15 01:40:11;;;;;;;20.32;14.87;;;;;;;10.39;86.82;100599.73;1747887;82;21007;-80
2021/10/15 01:42:56;;;;;;;19.90;14.18;;;;;;;10.39;86.81;100592.58;1747553;80;21469;-80
2021/10/15 01:45:28;;;;;;;19.52;14.70;;;;;;;10.39;86.83;100581.07;1747642;82;21067;-80
2021/10/15 01:47:54;;;;;;;22.75;13.80;;;;;;;10.39;86.81;100597.91;1747433;81;21058;-80
2021/10/15 01:50:20;;;;;;;17.82;14.33;;;;;;;10.37;86.81;100593.25;1747878;82;21034;-80
2021/10/15 01:52:47;;;;;;;17.82;13.45;;;;;;;10.36;86.81;100592.91;1747523;81;21022;-80
2021/10/15 01:55:13;;;;;;;21.15;14.65;;;;;;;10.36;86.80;100578.73;1747657;82;21059;-80
2021/10/15 01:57:40;;;;;;;19.20;15.10;;;;;;;10.36;86.80;100582.24;1747747;81;21055;-80
2021/10/15 02:00:08;;;;;;;18.55;14.53;;;;;;;10.34;86.78;100581.59;1747972;81;21461;-80
2021/10/15 02:02:35;;;;;;;17.87;13.48;;;;;;;10.35;86.77;100583.23;1747602;82;21622;-80
2021/10/15 02:05:01;;;;;;;18.15;13.65;;;;;;;10.36;86.77;100590.24;1747619;82;20983;-80
2021/10/15 02:07:27;;;;;;;18.48;14.50;;;;;;;10.37;86.76;100585.25;1747862;82;20992;-80
2021/10/15 02:09:53;;;;;;;17.65;14.18;;;;;;;10.37;86.75;100590.58;1747864;82;21054;-80
2021/10/15 02:12:19;;;;;;;21.75;14.38;;;;;;;10.36;86.73;100584.91;1747479;82;21162;-80
2021/10/15 02:14:45;;;;;;;19.95;15.25;;;;;;;10.37;86.73;100589.75;1747887;82;21027;-80
2021/10/15 02:17:12;;;;;;;23.38;14.28;;;;;;;10.37;86.73;100590.58;1747850;82;21452;-80
2021/10/15 02:19:38;;;;;;;17.48;13.72;;;;;;;10.36;86.72;100591.57;1747723;82;20996;-80
2021/10/15 02:22:04;;;;;;;19.30;14.43;;;;;;;10.35;86.72;100581.90;1747511;82;21054;-80
2021/10/15 02:24:30;;;;;;;18.27;13.53;;;;;;;10.36;86.72;100588.91;1747929;82;21128;-80
2021/10/15 02:26:56;;;;;;;22.17;13.72;;;;;;;10.36;86.72;100588.06;1747490;82;21046;-80
2021/10/15 02:29:22;;;;;;;19.00;12.65;;;;;;;10.36;86.71;100572.91;1747773;82;21054;-80
2021/10/15 02:31:48;;;;;;;20.00;13.55;;;;;;;10.36;86.69;100568.91;1747799;82;20999;-80
2021/10/15 02:34:16;;;;;;;19.20;13.72;;;;;;;10.36;86.69;100574.25;1747568;82;21528;-80
2021/10/15 02:36:42;;;;;;;20.48;16.30;;;;;;;10.34;86.67;100572.26;1747834;82;21291;-80
2021/10/15 02:39:08;;;;;;;19.23;14.58;;;;;;;10.35;86.70;100565.91;1747965;82;21298;-80
2021/10/15 02:41:37;;;;;;;17.32;13.95;;;;;;;10.34;86.70;100564.26;1747916;82;21472;-80
2021/10/15 02:44:02;;;;;;;18.30;13.60;;;;;;;10.34;86.66;100565.59;1747001;81;21078;-80
2021/10/15 02:46:28;;;;;;;18.75;13.80;;;;;;;10.34;86.67;100565.59;1747814;82;21012;-80
2021/10/15 02:48:54;;;;;;;21.93;12.98;;;;;;;10.34;86.65;100568.75;1747705;82;21177;-80
2021/10/15 02:51:20;;;;;;;19.95;13.28;;;;;;;10.33;86.66;100561.25;1747679;82;21011;-80
2021/10/15 02:53:46;;;;;;;20.32;14.35;;;;;;;10.33;86.66;100555.92;1747862;81;21035;-79
2021/10/15 02:56:12;;;;;;;17.80;12.28;;;;;;;10.33;86.64;100559.92;1747637;82;21031;-80
2021/10/15 02:58:38;;;;;;;19.98;13.80;;;;;;;10.32;86.62;100556.06;1747942;82;21015;-80
2021/10/15 03:01:04;;;;;;;18.40;12.75;;;;;;;10.32;86.65;100552.07;1747646;82;21477;-80
2021/10/15 03:03:30;;;;;;;19.23;12.88;;;;;;;10.33;86.64;100551.92;1747933;82;21393;-80
2021/10/15 03:05:56;;;;;;;21.10;14.10;;;;;;;10.33;86.63;100554.59;1747892;82;20995;-80
2021/10/15 03:08:22;;;;;;;19.75;12.93;;;;;;;10.32;86.61;100546.25;1748138;82;21003;-80
2021/10/15 03:10:48;;;;;;;20.97;12.80;;;;;;;10.32;86.61;100546.25;1747853;82;21086;-79
2021/10/15 03:13:14;;;;;;;17.55;13.20;;;;;;;10.31;86.61;100544.56;1747838;82;21113;-80
2021/10/15 03:15:40;;;;;;;20.12;12.70;;;;;;;10.32;86.60;100546.25;1748124;82;21294;-79
2021/10/15 03:18:06;;;;;;;16.05;11.88;;;;;;;10.32;86.60;100543.58;1747811;82;21015;-80
2021/10/15 03:20:35;;;;;;;17.10;13.30;;;;;;;10.32;86.58;100542.73;1747935;82;21019;-80
2021/10/15 03:23:01;;;;;;;16.57;12.35;;;;;;;10.31;86.56;100549.09;1747999;82;21000;-79
2021/10/15 03:25:27;;;;;;;15.32;12.78;;;;;;;10.31;86.57;100547.23;1747864;82;21074;-79
2021/10/15 03:27:53;;;;;;;16.40;11.88;;;;;;;10.31;86.54;100549.90;1747498;82;21003;-81
2021/10/15 03:30:19;;;;;;;21.52;12.63;;;;;;;10.31;86.57;100547.23;1747953;82;21051;-80
2021/10/15 03:32:45;;;;;;;17.25;12.13;;;;;;;10.30;86.55;100552.25;1748067;81;21517;-80
2021/10/15 03:35:11;;;;;;;15.18;11.63;;;;;;;10.31;86.52;100547.23;1747809;82;21512;-80
2021/10/15 03:37:37;;;;;;;16.87;11.93;;;;;;;10.31;86.54;100545.90;1747935;82;21928;-80
2021/10/15 03:40:05;;;;;;;16.70;11.43;;;;;;;10.31;86.53;100544.56;1747395;82;21018;-79
2021/10/15 03:42:31;;;;;;;21.05;12.37;;;;;;;10.30;86.50;100540.26;1747990;81;20944;-79
2021/10/15 03:44:57;;;;;;;17.77;12.37;;;;;;;10.30;86.52;100534.92;1765151;81;21018;-79
2021/10/15 03:47:23;;;;;;;14.73;11.40;;;;;;;10.30;86.50;100536.26;1767190;81;21038;-79
2021/10/15 03:49:49;;;;;;;16.12;11.63;;;;;;;10.29;86.46;100530.58;1767275;81;21118;-79
2021/10/15 03:52:15;;;;;;;16.35;11.57;;;;;;;10.28;86.48;100527.58;1766889;81;21069;-79
2021/10/15 03:54:41;;;;;;;16.77;12.50;;;;;;;10.28;86.47;100526.24;1767309;81;21034;-79
2021/10/15 03:57:07;;;;;;;14.13;10.75;;;;;;;10.29;86.45;100528.41;1766813;81;21587;-79
2021/10/15 03:59:33;;;;;;;17.98;11.93;;;;;;;10.27;86.44;100532.59;1767225;81;21501;-79
2021/10/15 04:01:59;;;;;;;18.30;12.98;;;;;;;10.27;86.45;100528.59;1767240;81;21714;-79
2021/10/15 04:04:25;;;;;;;17.10;11.63;;;;;;;10.26;86.42;100529.59;1767179;81;21038;-80
2021/10/15 04:06:51;;;;;;;14.20;11.50;;;;;;;10.26;86.40;100525.59;1767228;81;21014;-79
2021/10/15 04:09:18;;;;;;;16.48;12.20;;;;;;;10.25;86.42;100517.25;1766901;81;21069;-79
2021/10/15 04:11:44;;;;;;;20.92;12.85;;;;;;;10.24;86.40;100514.23;1767324;81;21046;-79
2021/10/15 04:14:10;;;;;;;18.82;12.55;;;;;;;10.24;86.38;100506.24;1767398;81;21464;-80
2021/10/15 04:16:36;;;;;;;21.25;12.93;;;;;;;10.23;86.38;100512.59;1767121;81;21649;-79
2021/10/15 04:19:02;;;;;;;16.02;12.47;;;;;;;10.22;86.36;100501.59;1767173;81;20982;-80
2021/10/15 04:21:28;;;;;;;18.40;12.65;;;;;;;10.22;86.36;100502.92;1767196;81;21626;-79
2021/10/15 04:23:54;;;;;;;18.70;12.45;;;;;;;10.23;86.34;100496.60;1767153;81;21463;-79
2021/10/15 04:26:20;;;;;;;16.27;12.95;;;;;;;10.22;86.34;100505.59;1767202;81;21081;-79
2021/10/15 04:28:46;;;;;;;18.95;13.40;;;;;;;10.22;86.32;100502.92;1767117;81;20990;-79
2021/10/15 04:31:12;;;;;;;18.02;13.75;;;;;;;10.22;86.32;100496.26;1767276;81;21054;-80
2021/10/15 04:33:38;;;;;;;20.37;13.72;;;;;;;10.22;86.31;100486.94;1767331;81;21034;-80
2021/10/15 04:36:04;;;;;;;18.57;14.00;;;;;;;10.21;86.27;100493.25;1767232;81;20987;-79
2021/10/15 04:38:30;;;;;;;20.97;14.13;;;;;;;10.21;86.28;100490.59;1767232;81;21375;-79
2021/10/15 04:40:56;;;;;;;20.10;13.90;;;;;;;10.19;86.26;100485.94;1766926;81;21511;-79
2021/10/15 04:43:23;;;;;;;18.95;13.25;;;;;;;10.19;86.23;100483.77;1767185;81;21662;-78
2021/10/15 04:45:49;;;;;;;21.07;13.62;;;;;;;10.19;86.22;100477.94;1767171;81;21011;-79
2021/10/15 04:48:15;;;;;;;18.60;12.95;;;;;;;10.19;86.21;100490.42;1767051;81;21018;-79
2021/10/15 04:50:41;;;;;;;17.17;11.70;;;;;;;10.17;86.19;100483.91;1767180;81;21130;-79
2021/10/15 04:53:07;;;;;;;16.62;11.95;;;;;;;10.15;86.17;100481.92;1767113;81;21022;-79
2021/10/15 04:55:34;;;;;;;17.52;13.15;;;;;;;10.13;86.15;100475.91;1767249;81;21042;-79
2021/10/15 04:58:00;;;;;;;18.32;13.45;;;;;;;10.12;86.16;100472.91;1767248;81;20995;-78
2021/10/15 05:00:27;;;;;;;17.45;12.63;;;;;;;10.11;86.15;100471.23;1767259;81;21036;-79
2021/10/15 05:02:54;;;;;;;18.17;12.55;;;;;;;10.10;86.15;100468.22;1767094;81;21126;-79
2021/10/15 05:05:23;;;;;;;19.60;12.40;;;;;;;10.10;86.09;100465.55;1767029;81;21074;-79
2021/10/15 05:07:47;;;;;;;19.10;11.93;;;;;;;10.11;86.12;100460.56;1766890;80;21523;-79
2021/10/15 05:10:14;;;;;;;16.12;11.78;;;;;;;10.11;86.11;100459.73;1767065;81;20967;-79
2021/10/15 05:12:40;;;;;;;15.65;12.15;;;;;;;10.10;86.06;100453.56;1767290;81;21063;-79
2021/10/15 05:15:09;;;;;;;17.65;12.93;;;;;;;10.11;86.06;100455.23;1767195;81;21068;-79
2021/10/15 05:17:36;;;;;;;17.52;12.00;;;;;;;10.12;86.05;100463.58;1767278;81;25858;-79
2021/10/15 05:20:07;;;;;;;15.23;11.00;;;;;;;10.12;86.02;100456.08;1767243;81;21490;-79
2021/10/15 05:22:33;;;;;;;18.00;12.23;;;;;;;10.11;86.00;100455.23;1767075;81;21494;-79
2021/10/15 05:25:00;;;;;;;15.13;11.28;;;;;;;10.11;85.96;100457.91;1766999;81;21082;-79
2021/10/15 05:27:27;;;;;;;18.90;11.40;;;;;;;10.14;85.97;100451.41;1767094;81;21002;-79
2021/10/15 05:29:54;;;;;;;16.77;11.43;;;;;;;10.14;85.94;100457.60;1767170;81;21476;-79
2021/10/15 05:32:20;;;;;;;15.28;11.25;;;;;;;10.16;85.88;100448.13;1766976;81;20998;-79
2021/10/15 05:34:46;;;;;;;18.12;11.63;;;;;;;10.15;85.86;100447.28;1767158;81;21007;-79
2021/10/15 05:37:14;;;;;;;16.75;11.15;;;;;;;10.15;85.85;100451.28;1767117;81;21006;-79
2021/10/15 05:39:40;;;;;;;23.05;11.75;;;;;;;10.17;85.83;100447.13;1766932;81;21569;-79
2021/10/15 05:42:06;;;;;;;17.15;11.05;;;;;;;10.21;85.76;100451.11;1766773;81;21503;-79
2021/10/15 05:44:33;;;;;;;17.00;13.13;;;;;;;10.23;85.74;100445.97;1766895;81;21050;-79
2021/10/15 05:47:03;;;;;;;15.25;10.95;;;;;;;10.24;85.71;100442.28;1767062;81;21030;-79
2021/10/15 05:49:27;;;;;;;14.93;11.55;;;;;;;10.26;85.67;100443.45;1766524;81;21270;-79
2021/10/15 05:52:02;;;;;;;12.85;11.08;;;;;;;10.27;85.62;100437.97;1767220;81;21088;-79
2021/10/15 05:54:28;;;;;;;16.73;11.00;;;;;;;10.30;85.58;100437.64;1765344;80;20991;-79
2021/10/15 05:59:23;;;;;;;14.45;11.12;;;;;;;10.34;85.51;100426.14;1767073;81;20991;-79
2021/10/15 06:01:54;;;;;;;18.30;11.08;;;;;;;10.35;85.47;100427.78;1766543;81;21085;-79
2021/10/15 06:14:50;;;;;;;16.07;11.18;;;;;;;10.43;85.20;100413.95;1767170;81;20995;-79
2021/10/15 06:17:18;;;;;;;15.60;11.15;;;;;;;10.46;85.16;100408.78;1767341;81;21483;-79
2021/10/15 06:19:53;;;;;;;16.42;11.65;;;;;;;10.47;85.09;100405.95;1766853;81;21033;-78
2021/10/15 06:22:24;;;;;;;15.53;11.10;;;;;;;10.49;85.03;100408.44;1765301;81;21031;-79
2021/10/15 06:24:51;;;;;;;13.32;10.90;;;;;;;10.51;84.96;100411.78;1729479;81;21022;-79
2021/10/15 06:27:20;;;;;;;15.43;9.70;;;;;;;10.54;84.89;100411.44;1751078;80;21631;-79
2021/10/15 06:29:46;;;;;;;20.17;12.65;;;;;;;10.58;84.82;100415.94;1773016;79;21765;-79
2021/10/15 06:32:12;;;;;;;19.30;12.90;;;;;;;10.60;84.73;100407.25;1778848;80;21040;-79
2021/10/15 06:34:38;;;;;;;17.40;12.45;;;;;;;10.61;84.67;100412.43;1764562;80;21042;-79
2021/10/15 06:37:04;;;;;;;15.93;13.03;;;;;;;10.64;84.60;100403.25;1733378;82;21090;-79
2021/10/15 06:39:30;;;;;;;17.23;11.10;;;;;;;10.66;84.54;100410.06;1766378;81;21556;-79
2021/10/15 06:41:56;;;;;;;14.45;10.53;;;;;;;10.71;84.48;100412.23;1750137;81;21192;-79
2021/10/15 06:44:23;;;;;;;20.27;10.85;;;;;;;10.75;84.41;100404.23;1762818;81;21119;-79
2021/10/15 06:46:49;;;;;;;21.17;12.65;;;;;;;10.79;84.33;100406.89;1749464;81;21084;-79
2021/10/15 06:49:15;;;;;;;15.10;11.00;;;;;;;10.81;84.26;100407.53;1749011;81;21365;-79
2021/10/15 06:51:41;;;;;;;18.40;10.98;;;;;;;10.84;84.17;100407.19;1753281;79;21509;-79
2021/10/15 06:54:07;;;;;;;13.60;9.55;;;;;;;10.87;84.08;100409.02;1752477;80;21785;-79
2021/10/15 06:56:33;;;;;;;12.82;9.58;;;;;;;10.90;84.02;100395.85;1774925;80;21017;-79
2021/10/15 06:58:59;;;;;;;19.92;11.63;;;;;;;10.93;83.93;100400.84;1754746;80;21424;-79
2021/10/15 07:01:25;;;;;;;15.38;10.58;;;;;;;10.95;83.87;100396.98;1773609;80;21048;-79
2021/10/15 07:03:51;;;;;;;13.62;10.25;;;;;;;10.99;83.79;100393.47;1778368;80;21054;-79
2021/10/15 07:06:17;;;;;;;13.55;9.25;;;;;;;11.04;83.71;100395.14;1775025;80;22026;-79
2021/10/15 07:08:43;;;;;;;15.25;10.30;;;;;;;11.11;83.63;100392.10;1767568;79;21085;-79
2021/10/15 07:11:09;;;;;;;13.30;9.50;;;;;;;11.19;83.55;100390.70;1805777;79;20995;-80
2021/10/15 07:13:35;;;;;;;15.48;8.83;;;;;;;11.27;83.44;100388.02;1788842;79;21535;-79
2021/10/15 07:16:01;;;;;;;12.00;8.53;;;;;;;11.35;83.34;100388.48;1770005;79;21507;-78
2021/10/15 07:18:27;;;;;;;11.38;9.25;;;;;;;11.39;83.25;100385.29;1733720;82;21144;-79
2021/10/15 07:20:54;;;;;;;12.07;8.35;;;;;;;11.44;83.13;100382.91;1762523;80;21044;-79
2021/10/15 07:23:20;;;;;;;10.65;8.80;;;;;;;11.54;83.04;100384.01;1731862;82;21779;-79
2021/10/15 07:25:46;;;;;;;11.53;8.43;;;;;;;11.61;82.98;100384.16;1772260;79;21488;-79
2021/10/15 07:28:12;;;;;;;11.18;8.30;;;;;;;11.67;82.85;100385.62;1768481;80;21075;-77
2021/10/15 07:30:38;;;;;;;9.78;7.80;;;;;;;11.75;82.73;100388.77;1767027;79;21132;-78
2021/10/15 07:33:04;;;;;;;10.58;8.33;;;;;;;11.78;82.62;100391.09;1773236;80;21086;-79
2021/10/15 07:35:31;;;;;;;12.20;8.43;;;;;;;11.84;82.51;100381.02;1765848;80;20995;-79
2021/10/15 07:37:57;;;;;;;10.65;8.10;;;;;;;11.85;82.38;100380.84;1745970;82;21019;-79
2021/10/15 07:40:23;;;;;;;11.75;7.40;;;;;;;11.85;82.28;100370.66;1746343;82;20880;-79
2021/10/15 07:42:49;;;;;;;11.63;8.70;;;;;;;11.83;82.16;100376.67;1746093;82;21081;-78
2021/10/15 07:45:15;;;;;;;11.60;7.33;;;;;;;11.78;82.05;100380.40;1745568;82;21039;-79
2021/10/15 07:47:41;;;;;;;11.18;7.60;;;;;;;11.75;81.91;100380.76;1746490;82;20996;-79
2021/10/15 07:50:08;;;;;;;10.63;7.45;;;;;;;11.72;81.77;100379.75;1746726;82;21079;-79
2021/10/15 07:52:34;;;;;;;10.98;7.00;;;;;;;11.70;81.62;100382.59;1746804;82;21043;-79
2021/10/15 07:55:00;;;;;;;11.12;7.42;;;;;;;11.71;81.53;100383.45;1746716;82;21205;-79
2021/10/15 07:57:26;;;;;;;17.00;6.60;;;;;;;11.73;81.41;100378.75;1745794;82;21043;-79
2021/10/15 07:59:52;;;;;;;8.20;6.87;;;;;;;11.73;81.27;100376.08;1782150;80;21044;-79
2021/10/15 08:02:18;;;;;;;9.90;7.12;;;;;;;11.77;81.17;100376.05;1782961;80;20885;-79
2021/10/15 08:04:44;;;;;;;10.53;6.62;;;;;;;11.83;81.09;100372.66;1782896;80;21067;-78
2021/10/15 08:07:10;;;;;;;8.63;6.70;;;;;;;11.83;81.02;100376.67;1782965;80;21130;-79
2021/10/15 08:09:36;;;;;;;7.67;6.72;;;;;;;11.78;80.96;100376.39;1783323;80;21571;-79
2021/10/15 08:12:02;;;;;;;12.65;6.35;;;;;;;11.75;80.90;100373.55;1782948;80;21474;-79
2021/10/15 08:14:28;;;;;;;10.03;6.75;;;;;;;11.71;80.82;100366.92;1783112;80;21024;-79
2021/10/15 08:16:54;;;;;;;8.15;6.08;;;;;;;11.70;80.77;100367.05;1783034;80;21023;-79
2021/10/15 08:19:20;;;;;;;9.48;6.25;;;;;;;11.74;80.71;100366.56;1783107;80;21750;-79
2021/10/15 08:21:46;;;;;;;7.25;5.97;;;;;;;11.81;80.59;100364.01;1783017;80;21329;-79
2021/10/15 08:24:14;;;;;;;9.63;6.47;;;;;;;11.90;80.51;100365.59;1782962;80;21012;-79
2021/10/15 08:26:41;;;;;;;9.03;5.75;;;;;;;11.96;80.39;100359.55;1783201;80;21069;-78
2021/10/15 08:29:07;;;;;;;8.95;7.45;;;;;;;12.03;80.29;100359.66;1782962;80;21552;-78
2021/10/15 08:31:33;;;;;;;9.05;6.33;;;;;;;12.11;80.18;100348.87;1783290;80;21656;-78
2021/10/15 08:34:01;;;;;;;10.05;6.70;;;;;;;12.17;80.09;100353.52;1783003;80;21040;-78
2021/10/15 08:36:27;;;;;;;13.00;8.28;;;;;;;12.23;79.97;100353.62;1782646;79;21532;-79
2021/10/15 08:38:53;;;;;;;10.35;5.75;;;;;;;12.32;79.92;100352.52;1783107;80;21588;-78
2021/10/15 08:41:20;;;;;;;7.40;5.65;;;;;;;12.38;79.77;100346.46;1782993;80;21049;-78
2021/10/15 08:43:46;;;;;;;6.17;5.08;;;;;;;12.50;79.69;100346.31;1782913;80;21165;-79
2021/10/15 08:46:12;;;;;;;8.45;5.08;;;;;;;12.62;79.57;100344.53;1782884;80;21501;-78
2021/10/15 08:48:41;;;;;;;7.80;5.55;;;;;;;12.70;79.39;100341.23;1782987;80;21449;-78
2021/10/15 08:51:08;;;;;;;10.70;5.23;;;;;;;12.78;79.25;100341.66;1783082;80;21044;-79
2021/10/15 08:53:57;;;;;;;7.47;4.78;;;;;;;12.84;79.07;100344.95;1783321;80;21064;-78
2021/10/15 08:56:24;;;;;;;6.25;5.15;;;;;;;12.79;78.77;100338.80;1783042;80;21753;-79
2021/10/15 08:58:54;;;;;;;11.20;5.35;;;;;;;12.82;78.62;100345.63;1783003;80;20972;-79
2021/10/15 09:01:20;;;;;;;7.25;4.60;;;;;;;12.86;78.40;100345.58;1782882;79;21422;-79
2021/10/15 09:03:46;;;;;;;16.27;7.70;;;;;;;12.91;78.26;100350.69;1758530;80;21005;-79
2021/10/15 09:06:12;;;;;;;17.42;8.03;;;;;;;12.94;78.13;100346.83;1783092;80;21040;-78
2021/10/15 09:08:53;;;;;;;9.53;5.50;;;;;;;13.02;78.04;100340.01;1783071;80;21067;-79
2021/10/15 09:11:38;;;;;;;10.13;4.85;;;;;;;13.07;77.87;100336.27;1783001;80;20996;-78
2021/10/15 09:14:13;;;;;;;7.00;4.17;;;;;;;13.07;77.68;100330.92;1758799;80;21012;-79
2021/10/15 09:17:03;;;;;;;8.63;5.97;;;;;;;13.11;77.41;100331.41;1782953;80;20993;-79
2021/10/15 09:19:45;;;;;;;9.65;6.37;;;;;;;13.18;77.26;100322.44;1783177;80;21459;-79
2021/10/15 09:22:32;;;;;;;9.95;6.25;;;;;;;13.27;77.14;100321.80;1782744;80;21147;-78
2021/10/15 09:25:02;;;;;;;11.78;6.97;;;;;;;13.38;77.00;100327.50;1782931;80;21035;-79
2021/10/15 09:27:45;;;;;;;9.35;6.80;;;;;;;13.39;76.76;100316.28;1783272;80;21013;-79
2021/10/15 09:30:20;;;;;;;9.28;5.60;;;;;;;13.44;76.66;100316.02;1782996;80;21042;-79
2021/10/15 09:32:50;;;;;;;7.80;5.17;;;;;;;13.59;76.53;100311.11;1782942;80;21553;-79
2021/10/15 09:35:20;;;;;;;10.45;6.75;;;;;;;13.63;76.28;100317.75;1781830;79;22128;-79
2021/10/15 09:37:48;;;;;;;8.73;5.20;;;;;;;13.68;76.02;100305.95;1781389;79;21000;-79
2021/10/15 09:40:17;;;;;;;9.45;5.67;;;;;;;13.75;75.73;100309.52;1771697;80;21042;-79
2021/10/15 09:42:49;;;;;;;8.23;4.00;;;;;;;13.87;75.47;100295.91;1730903;82;21073;-78
2021/10/15 09:45:18;;;;;;;8.28;4.85;;;;;;;13.95;75.12;100307.84;1759369;80;21076;-79
2021/10/15 09:47:46;;;;;;;6.83;4.12;;;;;;;13.94;74.72;100296.78;1744466;81;25894;-77
2021/10/15 09:50:15;;;;;;;6.17;4.08;;;;;;;13.97;74.49;100296.39;1737668;81;21511;-81
2021/10/15 09:52:49;;;;;;;7.23;4.77;;;;;;;14.00;74.27;100290.67;1696747;83;21609;-80
2021/10/15 09:55:26;;;;;;;7.95;5.65;;;;;;;14.03;74.10;100294.30;1728875;82;21015;-80
2021/10/15 09:57:53;;;;;;;5.83;4.87;;;;;;;14.09;73.88;100292.17;1714455;82;21053;-80
2021/10/15 10:00:24;;;;;;;5.90;4.42;;;;;;;14.09;73.61;100285.97;1741872;82;21052;-80
2021/10/15 10:02:50;;;;;;;7.47;5.33;;;;;;;14.12;73.33;100286.41;1741936;82;21446;-80
2021/10/15 10:05:18;;;;;;;8.33;5.33;;;;;;;14.18;73.17;100284.81;1738928;82;20975;-79
2021/10/15 10:07:51;;;;;;;8.88;4.92;;;;;;;14.25;72.98;100276.30;1742009;81;21025;-79
2021/10/15 10:10:25;;;;;;;11.53;5.33;;;;;;;14.35;72.83;100286.20;1745305;81;21107;-80
2021/10/15 10:12:51;;;;;;;6.75;4.78;;;;;;;14.34;72.56;100282.68;1743457;82;21152;-80
2021/10/15 10:15:21;;;;;;;8.85;4.42;;;;;;;14.29;72.39;100278.38;1732061;81;21578;-81
2021/10/15 10:18:23;;;;;;;;;;;;;;;14.25;72.29;100278.45;1740786;82;21499;-80
2021/10/15 10:21:03;;;;;;;5.95;4.72;;;;;;;14.25;72.13;100271.73;1736444;82;20174;-79
2021/10/15 10:23:47;;;;;;;6.35;4.37;;;;;;;14.31;71.96;100265.61;1746524;82;21047;-79
2021/10/15 10:26:16;;;;;;;6.45;4.40;;;;;;;14.41;71.69;100263.42;1740472;81;21493;-80
2021/10/15 10:28:41;;;;;;;8.90;4.92;;;;;;;14.46;71.48;100270.35;1743661;79;21491;-80
2021/10/15 10:31:21;;;;;;;4.42;4.03;;;;;;;14.37;71.26;100266.19;1736012;82;21005;-80
2021/10/15 10:33:57;;;;;;;6.67;4.72;;;;;;;14.32;71.21;100269.12;1720875;82;21638;-80
2021/10/15 10:36:25;;;;;;;7.17;4.80;;;;;;;14.35;71.17;100264.23;1737460;82;37100;-80
2021/10/15 10:38:51;;;;;;;5.75;4.00;;;;;;;14.36;71.01;100259.66;1740386;82;21282;-80
2021/10/15 10:41:29;;;;;;;6.08;4.35;;;;;;;14.36;70.86;100263.17;1765769;81;21089;-80
2021/10/15 10:44:07;;;;;;;6.28;4.58;;;;;;;14.33;70.79;100259.52;1781166;79;21028;-81
2021/10/15 10:46:33;;;;;;;5.30;4.33;;;;;;;14.25;70.65;100254.30;1715949;82;21513;-80
2021/10/15 10:49:06;;;;;;;4.97;4.10;;;;;;;14.23;70.62;100256.37;1704536;84;21521;-80
2021/10/15 10:51:32;;;;;;;11.05;4.72;;;;;;;14.25;70.60;100250.28;1737310;82;21063;-80
2021/10/15 10:54:22;;;;;;;7.28;4.70;;;;;;;14.33;70.65;100255.50;1704423;84;21081;-80
2021/10/15 10:56:51;;;;;;;5.83;4.33;;;;;;;14.54;70.64;100253.77;1704122;83;25036;-80
2021/10/15 10:59:29;;;;;;;4.08;3.47;;;;;;;14.81;70.53;100252.88;1737659;82;21026;-80
2021/10/15 11:02:02;;;;;;;6.10;3.52;;;;;;;14.94;70.48;100244.87;1705369;82;21561;-80
2021/10/15 11:04:38;;;;;;;5.33;3.77;;;;;;;14.98;70.29;100217.41;1735587;82;21222;-80
2021/10/15 11:07:21;;;;;;;4.95;3.42;;;;;;;14.98;70.29;100217.41;1772763;80;21032;-80
2021/10/15 11:09:54;;;;;;;8.08;3.80;;;;;;;15.10;69.94;100235.08;1747738;81;21017;-80
2021/10/15 11:12:31;;;;;;;4.67;3.58;;;;;;;14.97;69.57;100235.06;1716792;83;21006;-81
2021/10/15 11:15:09;;;;;;;6.03;3.27;;;;;;;14.85;69.40;100220.03;1715132;83;21064;-80
2021/10/15 11:17:47;;;;;;;4.90;3.45;;;;;;;14.85;69.40;100220.03;1716358;82;21180;-80
2021/10/15 11:20:27;;;;;;;3.62;3.20;;;;;;;14.96;68.88;100233.39;1688863;83;21058;-81
2021/10/15 11:23:01;;;;;;;4.90;3.08;;;;;;;14.96;68.88;100233.39;1729715;82;21003;-81
2021/10/15 11:25:40;;;;;;;4.10;2.83;;;;;;;14.98;68.51;100221.44;1745277;82;21486;-80
2021/10/15 11:28:09;;;;;;;6.85;3.80;;;;;;;14.98;68.51;100221.44;1734199;81;21002;-80
2021/10/15 11:30:38;;;;;;;4.55;3.58;;;;;;;15.04;68.42;100219.79;1704688;84;21486;-80
2021/10/15 11:33:06;;;;;;;3.80;2.90;;;;;;;14.82;68.23;100216.42;1737698;82;21086;-80